createdAt,value
2022-11-22T00:01:21.369Z,29.07
2022-11-22T00:03:49.974Z,25.67
2022-11-22T00:06:19.413Z,24.57
2022-11-22T00:08:48.436Z,25.03
2022-11-22T00:11:16.968Z,25.90
2022-11-22T00:13:45.076Z,21.07
2022-11-22T00:16:14.763Z,26.77
2022-11-22T00:18:42.973Z,22.60
2022-11-22T00:21:12.344Z,23.20
2022-11-22T00:23:41.780Z,20.07
2022-11-22T00:26:12.510Z,28.87
2022-11-22T00:28:40.793Z,22.17
2022-11-22T00:31:08.914Z,21.53
2022-11-22T00:33:37.589Z,23.20
2022-11-22T00:36:06.128Z,20.90
2022-11-22T00:38:34.222Z,23.63
2022-11-22T00:41:03.961Z,25.77
2022-11-22T00:43:32.356Z,24.50
2022-11-22T00:46:01.080Z,24.20
2022-11-22T00:48:29.943Z,28.83
2022-11-22T00:50:58.105Z,20.77
2022-11-22T00:53:26.700Z,22.70
2022-11-22T00:55:55.180Z,23.63
2022-11-22T00:58:24.764Z,22.63
2022-11-22T01:00:56.522Z,25.10
2022-11-22T01:03:25.348Z,19.27
2022-11-22T01:05:53.894Z,22.57
2022-11-22T01:08:21.969Z,19.97
2022-11-22T01:10:50.620Z,24.40
2022-11-22T01:13:19.099Z,23.97
2022-11-22T01:15:48.532Z,25.80
2022-11-22T01:18:17.099Z,25.87
2022-11-22T01:20:45.655Z,19.63
2022-11-22T01:23:13.737Z,22.40
2022-11-22T01:25:44.927Z,22.63
2022-11-22T01:28:13.496Z,23.73
2022-11-22T01:30:43.036Z,18.70
2022-11-22T01:33:14.512Z,18.53
2022-11-22T01:35:43.622Z,19.97
2022-11-22T01:38:11.894Z,25.83
2022-11-22T01:40:41.035Z,23.67
2022-11-22T01:43:18.433Z,23.57
2022-11-22T01:45:52.674Z,22.20
2022-11-22T01:48:52.099Z,21.63
2022-11-22T01:51:26.616Z,23.83
2022-11-22T01:53:57.468Z,21.43
2022-11-22T01:56:27.559Z,25.43
2022-11-22T01:59:02.592Z,21.40
2022-11-22T02:01:33.064Z,24.53
2022-11-22T02:04:06.442Z,32.57
2022-11-22T02:06:43.284Z,21.13
2022-11-22T02:09:13.405Z,23.70
2022-11-22T02:11:48.266Z,22.73
2022-11-22T02:14:19.809Z,24.70
2022-11-22T02:16:49.887Z,21.23
2022-11-22T02:19:31.460Z,23.90
2022-11-22T02:22:08.228Z,33.23
2022-11-22T02:24:43.416Z,22.23
2022-11-22T02:27:12.970Z,24.90
2022-11-22T02:29:44.723Z,20.77
2022-11-22T02:32:12.833Z,23.07
2022-11-22T02:34:47.400Z,21.87
2022-11-22T02:37:19.898Z,22.33
2022-11-22T02:39:52.652Z,23.93
2022-11-22T02:42:22.492Z,26.50
2022-11-22T02:44:51.028Z,23.93
2022-11-22T02:47:19.492Z,24.40
2022-11-22T02:49:47.641Z,21.70
2022-11-22T02:52:18.222Z,21.67
2022-11-22T02:54:47.096Z,20.30
2022-11-22T02:57:15.425Z,22.00
2022-11-22T02:59:45.345Z,22.53
2022-11-22T03:02:13.932Z,22.43
2022-11-22T03:04:42.061Z,19.20
2022-11-22T03:07:10.714Z,22.43
2022-11-22T03:09:39.311Z,19.23
2022-11-22T03:12:07.620Z,19.30
2022-11-22T03:14:36.132Z,19.10
2022-11-22T03:17:05.768Z,20.53
2022-11-22T03:19:34.444Z,19.93
2022-11-22T03:22:02.911Z,20.03
2022-11-22T03:24:31.092Z,19.90
2022-11-22T03:26:59.387Z,18.23
2022-11-22T03:29:27.657Z,20.10
2022-11-22T03:31:56.243Z,18.83
2022-11-22T03:34:25.732Z,22.47
2022-11-22T03:36:53.890Z,19.67
2022-11-22T03:39:22.438Z,17.27
2022-11-22T03:41:50.957Z,18.70
2022-11-22T03:44:19.448Z,17.10
2022-11-22T03:46:48.316Z,16.77
2022-11-22T03:49:16.879Z,15.20
2022-11-22T03:51:46.372Z,17.90
2022-11-22T03:54:15.048Z,19.40
2022-11-22T03:56:43.450Z,19.03
2022-11-22T03:59:11.591Z,26.10
2022-11-22T04:01:40.217Z,19.10
2022-11-22T04:04:08.367Z,18.70
2022-11-22T04:06:37.497Z,19.60
2022-11-22T04:09:08.529Z,20.33
2022-11-22T04:11:36.733Z,16.77
2022-11-22T04:14:22.857Z,19.60
2022-11-22T04:16:51.218Z,17.93
2022-11-22T04:19:19.310Z,17.33
2022-11-22T04:21:46.845Z,17.07
2022-11-22T04:24:33.876Z,16.77
2022-11-22T04:27:02.820Z,18.43
2022-11-22T04:29:31.513Z,17.93
2022-11-22T04:32:19.099Z,17.00
2022-11-22T04:34:47.253Z,17.50
2022-11-22T04:37:15.388Z,15.77
2022-11-22T04:39:45.314Z,16.13
2022-11-22T04:42:30.788Z,24.97
2022-11-22T04:44:59.561Z,13.83
2022-11-22T04:47:49.975Z,19.60
2022-11-22T04:50:36.598Z,18.37
2022-11-22T04:53:04.864Z,15.47
2022-11-22T04:55:34.732Z,15.37
2022-11-22T04:58:04.087Z,15.73
2022-11-22T05:00:33.009Z,15.50
2022-11-22T05:03:01.276Z,22.77
2022-11-22T05:05:29.896Z,25.00
2022-11-22T05:07:59.859Z,21.07
2022-11-22T05:10:28.463Z,14.83
2022-11-22T05:12:58.829Z,15.17
2022-11-22T05:15:26.904Z,19.27
2022-11-22T05:17:55.074Z,18.20
2022-11-22T05:20:23.280Z,20.73
2022-11-22T05:23:20.480Z,19.73
2022-11-22T05:25:49.495Z,18.33
2022-11-22T05:28:18.961Z,18.53
2022-11-22T05:30:47.041Z,17.13
2022-11-22T05:33:15.576Z,27.13
2022-11-22T05:35:43.707Z,19.93
2022-11-22T05:38:11.813Z,16.73
2022-11-22T05:40:40.904Z,20.50
2022-11-22T05:43:08.988Z,14.00
2022-11-22T05:45:38.535Z,20.07
2022-11-22T05:48:07.321Z,18.57
2022-11-22T05:50:35.536Z,16.83
2022-11-22T05:53:04.269Z,18.63
2022-11-22T05:55:32.933Z,19.60
2022-11-22T05:58:01.448Z,17.27
2022-11-22T06:00:30.265Z,20.60
2022-11-22T06:03:03.881Z,19.83
2022-11-22T06:05:32.650Z,18.87
2022-11-22T06:08:02.734Z,21.30
2022-11-22T06:10:31.477Z,18.50
2022-11-22T06:12:59.775Z,21.57
2022-11-22T06:15:27.868Z,16.83
2022-11-22T06:17:56.460Z,23.47
2022-11-22T06:20:25.930Z,21.77
2022-11-22T06:22:54.173Z,21.00
2022-11-22T06:25:23.612Z,18.77
2022-11-22T06:27:51.764Z,24.57
2022-11-22T06:30:19.960Z,23.70
2022-11-22T06:32:48.645Z,22.20
2022-11-22T06:35:16.852Z,20.27
2022-11-22T06:37:46.305Z,20.87
2022-11-22T06:40:15.608Z,23.20
2022-11-22T06:42:43.703Z,24.73
2022-11-22T06:45:12.635Z,20.80
2022-11-22T06:47:41.193Z,21.80
2022-11-22T06:50:09.907Z,22.23
2022-11-22T06:52:39.585Z,21.87
2022-11-22T06:55:34.643Z,27.07
2022-11-22T06:57:58.221Z,23.73
2022-11-22T07:00:26.888Z,22.73
2022-11-22T07:02:54.976Z,22.43
2022-11-22T07:05:26.017Z,21.67
2022-11-22T07:07:59.099Z,25.53
2022-11-22T07:10:32.440Z,29.63
2022-11-22T07:13:01.172Z,27.03
2022-11-22T07:15:29.245Z,32.03
2022-11-22T07:17:57.346Z,29.60
2022-11-22T07:20:25.615Z,24.27
2022-11-22T07:22:53.755Z,27.07
2022-11-22T07:25:21.856Z,28.70
2022-11-22T07:27:53.308Z,24.70
2022-11-22T07:30:21.576Z,26.57
2022-11-22T07:32:50.552Z,29.37
2022-11-22T07:35:18.728Z,28.47
2022-11-22T07:37:47.692Z,31.57
2022-11-22T07:40:16.135Z,28.13
2022-11-22T07:42:44.749Z,28.87
2022-11-22T07:45:14.287Z,28.50
2022-11-22T07:47:42.825Z,28.10
2022-11-22T07:50:11.989Z,32.60
2022-11-22T07:52:40.139Z,27.80
2022-11-22T07:55:13.776Z,27.40
2022-11-22T07:57:42.881Z,25.47
2022-11-22T08:00:14.492Z,26.93
2022-11-22T08:02:42.588Z,36.17
2022-11-22T08:05:11.117Z,31.23
2022-11-22T08:07:41.646Z,32.43
2022-11-22T08:10:10.786Z,26.40
2022-11-22T08:12:39.367Z,31.00
2022-11-22T08:15:08.963Z,26.73
2022-11-22T08:17:38.524Z,29.20
2022-11-22T08:20:10.696Z,26.90
2022-11-22T08:22:40.869Z,42.40
2022-11-22T08:25:12.761Z,27.90
2022-11-22T08:27:41.912Z,28.90
2022-11-22T08:30:11.528Z,27.23
2022-11-22T08:32:41.153Z,25.43
2022-11-22T08:35:10.022Z,32.63
2022-11-22T08:37:38.500Z,24.83
2022-11-22T08:40:08.034Z,28.13
2022-11-22T08:42:36.201Z,32.97
2022-11-22T08:45:06.123Z,30.57
2022-11-22T08:47:34.392Z,25.17
2022-11-22T08:50:03.838Z,31.47
2022-11-22T08:52:31.969Z,26.27
2022-11-22T08:55:01.714Z,30.27
2022-11-22T08:57:29.785Z,26.67
2022-11-22T08:59:57.843Z,27.20
2022-11-22T09:02:26.663Z,27.37
2022-11-22T09:04:54.877Z,19.80
2022-11-22T09:10:12.636Z,29.00
2022-11-22T09:12:44.759Z,24.07
2022-11-22T09:15:14.142Z,24.07
2022-11-22T09:17:42.348Z,27.83
2022-11-22T09:20:11.668Z,26.03
2022-11-22T09:22:41.801Z,30.10
2022-11-22T09:25:11.131Z,33.87
2022-11-22T09:27:39.227Z,32.67
2022-11-22T09:30:08.793Z,26.67
2022-11-22T09:32:36.853Z,25.37
2022-11-22T09:35:06.591Z,34.00
2022-11-22T09:37:34.810Z,32.50
2022-11-22T09:40:05.087Z,30.33
2022-11-22T09:43:03.860Z,34.63
2022-11-22T09:45:58.139Z,27.50
2022-11-22T09:48:38.722Z,29.97
2022-11-22T09:51:11.360Z,25.43
2022-11-22T09:53:44.978Z,28.17
2022-11-22T09:56:17.745Z,23.40
2022-11-22T09:58:51.797Z,29.37
2022-11-22T10:01:25.436Z,29.37
2022-11-22T10:03:59.475Z,32.07
2022-11-22T10:06:30.443Z,26.87
2022-11-22T10:09:08.768Z,39.50
2022-11-22T10:11:45.023Z,34.77
2022-11-22T10:14:28.526Z,35.07
2022-11-22T10:17:01.142Z,31.07
2022-11-22T10:19:36.856Z,30.97
2022-11-22T10:22:12.290Z,28.43
2022-11-22T10:24:40.766Z,31.27
2022-11-22T10:27:14.345Z,27.23
2022-11-22T10:29:47.172Z,31.57
2022-11-22T10:32:24.299Z,28.13
2022-11-22T10:35:11.089Z,24.53
2022-11-22T10:37:46.693Z,23.87
2022-11-22T10:40:21.459Z,30.33
2022-11-22T10:43:10.592Z,31.10
2022-11-22T10:45:44.523Z,30.73
2022-11-22T10:48:21.837Z,24.90
2022-11-22T10:50:59.687Z,24.50
2022-11-22T10:53:45.253Z,32.27
2022-11-22T10:56:21.468Z,26.43
2022-11-22T10:59:17.673Z,32.17
2022-11-22T11:01:51.927Z,29.23
2022-11-22T11:04:21.270Z,28.23
2022-11-22T11:07:11.697Z,28.00
2022-11-22T11:12:41.756Z,30.40
2022-11-22T11:15:20.734Z,27.07
2022-11-22T11:17:54.852Z,28.03
2022-11-22T11:20:27.608Z,25.77
2022-11-22T11:23:14.357Z,25.53
2022-11-22T11:25:45.425Z,25.23
2022-11-22T11:28:20.212Z,24.20
2022-11-22T11:30:52.408Z,26.37
2022-11-22T11:33:26.093Z,24.07
2022-11-22T11:35:58.057Z,27.53
2022-11-22T11:38:34.801Z,25.70
2022-11-22T11:41:21.549Z,30.33
2022-11-22T11:43:50.869Z,24.10
2022-11-22T11:46:22.460Z,21.90
2022-11-22T11:48:51.745Z,22.07
2022-11-22T11:51:27.328Z,22.33
2022-11-22T11:54:00.045Z,22.03
2022-11-22T11:56:48.639Z,22.37
2022-11-22T11:59:20.103Z,21.63
2022-11-22T12:02:00.654Z,23.27
2022-11-22T12:04:31.863Z,20.87
2022-11-22T12:07:05.006Z,20.20
2022-11-22T12:09:39.122Z,25.87
2022-11-22T12:12:16.412Z,23.57
2022-11-22T12:15:10.196Z,22.13
2022-11-22T12:17:45.258Z,18.40
2022-11-22T12:20:19.833Z,18.93
2022-11-22T12:22:58.568Z,17.03
2022-11-22T12:25:34.741Z,16.57
2022-11-22T12:28:13.837Z,19.63
2022-11-22T12:30:44.309Z,18.83
2022-11-22T12:33:20.626Z,18.00
2022-11-22T12:35:51.197Z,22.57
2022-11-22T12:38:23.903Z,22.40
2022-11-22T12:40:55.617Z,18.97
2022-11-22T12:43:27.516Z,20.53
2022-11-22T12:45:59.554Z,20.47
2022-11-22T12:48:33.626Z,21.27
2022-11-22T12:51:09.688Z,17.10
2022-11-22T12:53:43.249Z,22.67
2022-11-22T12:56:20.755Z,17.73
2022-11-22T12:58:54.880Z,20.50
2022-11-22T13:01:28.340Z,19.53
2022-11-22T13:04:05.105Z,20.10
2022-11-22T13:06:41.764Z,18.73
2022-11-22T13:09:16.285Z,21.43
2022-11-22T13:11:52.256Z,23.10
2022-11-22T13:14:24.792Z,23.50
2022-11-22T13:16:52.991Z,23.37
2022-11-22T13:19:26.254Z,22.87
2022-11-22T13:22:08.563Z,18.83
2022-11-22T13:24:46.439Z,24.07
2022-11-22T13:27:21.315Z,24.47
2022-11-22T13:29:52.758Z,23.03
2022-11-22T13:32:24.637Z,22.30
2022-11-22T13:35:18.567Z,26.43
2022-11-22T13:37:48.834Z,26.37
2022-11-22T13:40:27.334Z,19.53
2022-11-22T13:43:50.375Z,23.40
2022-11-22T13:46:57.472Z,24.33
2022-11-22T13:49:38.228Z,26.10
2022-11-22T13:52:35.082Z,21.40
2022-11-22T13:55:28.757Z,23.87
2022-11-22T13:57:57.491Z,27.47
2022-11-22T14:00:47.180Z,23.93
2022-11-22T14:03:38.887Z,26.60
2022-11-22T14:06:31.533Z,30.60
2022-11-22T14:09:39.716Z,21.50
2022-11-22T14:12:43.957Z,36.00
2022-11-22T14:15:41.100Z,31.53
2022-11-22T14:18:22.953Z,33.17
2022-11-22T14:21:04.405Z,43.17
2022-11-22T14:23:43.807Z,46.53
2022-11-22T14:26:24.165Z,34.40
2022-11-22T14:29:17.354Z,32.17
2022-11-22T14:31:54.312Z,49.77
2022-11-22T14:34:24.968Z,36.50
2022-11-22T14:37:31.867Z,38.27
2022-11-22T14:40:29.912Z,43.33
2022-11-22T14:43:05.006Z,42.70
2022-11-22T14:45:43.859Z,36.00
2022-11-22T14:48:19.204Z,36.97
2022-11-22T14:50:52.420Z,48.07
2022-11-22T14:53:28.709Z,48.93
2022-11-22T14:56:05.131Z,42.63
2022-11-22T14:58:39.522Z,45.87
2022-11-22T15:01:38.234Z,43.17
2022-11-22T15:09:13.962Z,41.53
2022-11-22T15:09:22.559Z,40.37
2022-11-22T15:11:33.711Z,37.67
2022-11-22T15:14:38.806Z,38.77
2022-11-22T15:57:34.574Z,33.37
2022-11-22T16:00:03.277Z,27.70
2022-11-22T16:02:33.106Z,37.47
2022-11-22T16:06:07.201Z,35.33
2022-11-22T16:07:56.160Z,34.13
2022-11-22T16:10:28.360Z,35.30
2022-11-22T16:12:56.448Z,33.07
2022-11-22T16:15:28.696Z,27.53
2022-11-22T16:18:08.558Z,29.13
2022-11-22T16:20:39.897Z,22.23
2022-11-22T16:23:25.739Z,23.20
2022-11-22T16:26:00.719Z,24.40
2022-11-22T16:28:39.843Z,24.33
2022-11-22T16:31:18.647Z,23.53
2022-11-22T16:33:47.131Z,21.80
2022-11-22T16:36:18.225Z,19.67
2022-11-22T16:38:46.865Z,22.10
2022-11-22T16:41:20.164Z,18.43
2022-11-22T16:43:51.086Z,21.30
2022-11-22T16:46:19.500Z,18.83
2022-11-22T16:48:48.040Z,20.27
2022-11-22T16:51:21.705Z,15.43
2022-11-22T16:53:51.963Z,19.70
2022-11-22T16:56:21.445Z,20.50
2022-11-22T16:58:50.713Z,19.47
2022-11-22T17:01:21.228Z,16.77
2022-11-22T17:03:51.972Z,17.43
2022-11-22T17:06:25.273Z,20.13
2022-11-22T17:08:55.511Z,22.90
2022-11-22T17:11:26.856Z,17.47
2022-11-22T17:13:55.281Z,17.70
2022-11-22T17:16:23.739Z,17.87
2022-11-22T17:18:53.448Z,20.87
2022-11-22T17:21:31.349Z,19.87
2022-11-22T17:24:04.764Z,18.67
2022-11-22T17:26:34.733Z,19.47
2022-11-22T17:29:02.953Z,21.03
2022-11-22T17:31:31.357Z,18.60
2022-11-22T17:34:00.384Z,19.63
2022-11-22T17:36:31.567Z,22.53
2022-11-22T17:39:01.796Z,18.73
2022-11-22T17:41:30.455Z,17.53
2022-11-22T17:43:59.241Z,21.40
2022-11-22T17:46:28.203Z,18.50
2022-11-22T17:48:57.938Z,18.30
2022-11-22T17:51:26.814Z,15.90
2022-11-22T17:53:58.424Z,18.97
2022-11-22T17:56:27.448Z,21.07
2022-11-22T17:58:55.717Z,22.30
2022-11-22T18:01:25.081Z,24.20
2022-11-22T18:03:53.255Z,19.13
2022-11-22T18:06:22.663Z,19.20
2022-11-22T18:08:51.163Z,18.03
2022-11-22T18:11:22.227Z,16.63
2022-11-22T18:13:50.398Z,22.07
2022-11-22T18:16:18.732Z,22.27
2022-11-22T18:19:02.342Z,26.70
2022-11-22T18:21:33.485Z,21.23
2022-11-22T18:24:02.916Z,22.40
2022-11-22T18:26:40.579Z,17.67
2022-11-22T18:29:41.254Z,22.53
2022-11-22T18:31:59.249Z,20.63
2022-11-22T18:34:28.395Z,24.03
2022-11-22T18:37:01.850Z,21.87
2022-11-22T18:39:33.307Z,24.60
2022-11-22T18:42:03.301Z,26.83
2022-11-22T18:44:31.969Z,23.70
2022-11-22T18:47:00.524Z,22.30
2022-11-22T18:49:28.786Z,24.23
2022-11-22T18:51:57.125Z,27.37
2022-11-22T18:54:25.626Z,23.03
2022-11-22T18:56:53.716Z,21.33
2022-11-22T18:59:23.359Z,23.20
2022-11-22T19:01:51.554Z,23.03
2022-11-22T19:04:19.809Z,29.37
2022-11-22T19:06:48.432Z,25.37
2022-11-22T19:09:16.663Z,20.63
2022-11-22T19:11:44.893Z,23.20
2022-11-22T19:14:13.133Z,22.00
2022-11-22T19:16:42.888Z,23.23
2022-11-22T19:19:13.114Z,19.33
2022-11-22T19:21:41.405Z,21.10
2022-11-22T19:24:09.928Z,19.40
2022-11-22T19:26:38.065Z,20.87
2022-11-22T19:29:06.599Z,21.37
2022-11-22T19:31:35.869Z,21.43
2022-11-22T19:34:05.601Z,21.87
2022-11-22T19:36:36.471Z,17.83
2022-11-22T19:39:06.376Z,18.10
2022-11-22T19:41:35.030Z,19.77
2022-11-22T19:44:05.050Z,19.27
2022-11-22T19:46:33.608Z,26.03
2022-11-22T19:49:02.407Z,23.90
2022-11-22T19:51:32.932Z,29.33
2022-11-22T19:54:03.131Z,22.07
2022-11-22T19:56:32.818Z,24.30
2022-11-22T19:59:04.089Z,26.27
2022-11-22T20:01:34.637Z,28.57
2022-11-22T20:04:06.873Z,25.50
2022-11-22T20:06:37.471Z,28.13
2022-11-22T20:09:06.929Z,35.00
2022-11-22T20:11:35.204Z,24.47
2022-11-22T20:14:03.996Z,25.83
2022-11-22T20:16:32.332Z,25.13
2022-11-22T20:19:01.968Z,24.87
2022-11-22T20:21:31.900Z,21.33
2022-11-22T20:24:02.434Z,18.57
2022-11-22T20:26:31.687Z,16.40
2022-11-22T20:29:01.644Z,18.67
2022-11-22T20:31:32.463Z,33.53
2022-11-22T20:34:02.048Z,37.33
2022-11-22T20:36:32.798Z,34.67
2022-11-22T20:39:08.623Z,30.87
2022-11-22T20:41:38.876Z,21.77
2022-11-22T20:44:07.720Z,24.00
2022-11-22T20:46:38.267Z,16.73
2022-11-22T20:49:06.491Z,17.60
2022-11-22T20:51:38.832Z,24.63
2022-11-22T20:54:08.777Z,20.90
2022-11-22T20:56:37.344Z,19.07
2022-11-22T20:59:05.720Z,20.47
2022-11-22T21:01:33.897Z,17.03
2022-11-22T21:04:02.814Z,25.67
2022-11-22T21:06:32.979Z,26.40
2022-11-22T21:09:01.151Z,19.70
2022-11-22T21:11:32.141Z,16.73
2022-11-22T21:14:01.007Z,17.70
2022-11-22T21:16:30.609Z,19.27
2022-11-22T21:19:01.036Z,16.73
2022-11-22T21:21:30.481Z,20.83
2022-11-22T21:24:00.667Z,15.50
2022-11-22T21:26:30.751Z,14.57
2022-11-22T21:29:00.176Z,16.37
2022-11-22T21:31:29.210Z,19.67
2022-11-22T21:33:57.864Z,14.73
2022-11-22T21:36:28.493Z,11.90
2022-11-22T21:38:56.641Z,12.47
2022-11-22T21:41:41.235Z,15.03
2022-11-22T21:44:12.687Z,17.80
2022-11-22T21:46:41.346Z,13.73
2022-11-22T21:49:09.782Z,15.37
2022-11-22T21:51:38.561Z,13.77
2022-11-22T21:54:06.781Z,16.57
2022-11-22T21:56:35.409Z,19.27
2022-11-22T21:59:04.276Z,18.27
2022-11-22T22:01:34.061Z,23.00
2022-11-22T22:04:02.238Z,18.13
2022-11-22T22:06:31.939Z,17.67
2022-11-22T22:09:00.748Z,17.67
2022-11-22T22:11:28.795Z,23.47
2022-11-22T22:13:59.093Z,14.50
2022-11-22T22:16:27.465Z,14.63
2022-11-22T22:18:56.923Z,15.93
2022-11-22T22:21:25.647Z,15.57
2022-11-22T22:23:54.479Z,16.17
2022-11-22T22:26:22.583Z,12.63
2022-11-22T22:28:50.737Z,18.10
2022-11-22T22:31:22.708Z,19.47
2022-11-22T22:33:54.387Z,14.57
2022-11-22T22:36:25.317Z,13.80
2022-11-22T22:38:54.410Z,14.20
2022-11-22T22:41:22.590Z,14.10
2022-11-22T22:43:50.944Z,16.00
2022-11-22T22:46:20.888Z,15.43
2022-11-22T22:48:50.380Z,16.93
2022-11-22T22:51:20.837Z,11.47
2022-11-22T22:53:50.703Z,15.53
2022-11-22T22:56:21.427Z,13.07
2022-11-22T22:58:49.922Z,10.83
2022-11-22T23:01:19.653Z,11.87
2022-11-22T23:03:49.667Z,13.67
2022-11-22T23:06:18.544Z,14.63
2022-11-22T23:08:48.267Z,13.80
2022-11-22T23:11:19.858Z,11.90
2022-11-22T23:13:48.047Z,12.90
2022-11-22T23:16:16.595Z,14.30
2022-11-22T23:18:46.037Z,10.20
2022-11-22T23:21:17.101Z,13.80
2022-11-22T23:23:45.804Z,12.50
2022-11-22T23:26:14.957Z,12.77
2022-11-22T23:28:44.545Z,12.30
2022-11-22T23:31:14.579Z,20.20
2022-11-22T23:33:44.763Z,11.43
2022-11-22T23:36:14.897Z,8.37
2022-11-22T23:38:43.988Z,11.83
2022-11-22T23:41:14.500Z,11.63
2022-11-22T23:43:44.457Z,9.47
2022-11-22T23:46:16.417Z,10.47
2022-11-22T23:48:45.298Z,14.80
2022-11-22T23:51:14.181Z,11.70
2022-11-22T23:53:42.791Z,11.27
2022-11-22T23:56:12.639Z,12.80
2022-11-22T23:58:42.309Z,17.33
